sensor_id;sensor_type;location;lat;lon;timestamp;P1;durP1;ratioP1;P2;durP2;ratioP2
26014;SDS011;13793;55.388;37.844;2023-07-29T00:02:35;5.33;;;4.83;;
26014;SDS011;13793;55.388;37.844;2023-07-29T00:05:16;8.23;;;5.33;;
26014;SDS011;13793;55.388;37.844;2023-07-29T00:07:47;6.78;;;5.17;;
26014;SDS011;13793;55.388;37.844;2023-07-29T00:10:28;8.30;;;4.97;;
26014;SDS011;13793;55.388;37.844;2023-07-29T00:13:00;8.15;;;4.50;;
26014;SDS011;13793;55.388;37.844;2023-07-29T00:15:41;7.67;;;4.60;;
26014;SDS011;13793;55.388;37.844;2023-07-29T00:18:12;4.60;;;3.77;;
26014;SDS011;13793;55.388;37.844;2023-07-29T00:20:52;6.40;;;4.12;;
26014;SDS011;13793;55.388;37.844;2023-07-29T00:23:24;4.87;;;4.37;;
26014;SDS011;13793;55.388;37.844;2023-07-29T00:26:05;5.45;;;3.83;;
26014;SDS011;13793;55.388;37.844;2023-07-29T00:28:35;6.12;;;4.28;;
26014;SDS011;13793;55.388;37.844;2023-07-29T00:31:16;6.80;;;4.22;;
26014;SDS011;13793;55.388;37.844;2023-07-29T00:33:48;6.47;;;4.55;;
26014;SDS011;13793;55.388;37.844;2023-07-29T00:36:29;5.37;;;4.12;;
26014;SDS011;13793;55.388;37.844;2023-07-29T00:38:59;6.28;;;4.40;;
26014;SDS011;13793;55.388;37.844;2023-07-29T00:41:40;6.50;;;4.95;;
26014;SDS011;13793;55.388;37.844;2023-07-29T00:44:11;5.25;;;4.67;;
26014;SDS011;13793;55.388;37.844;2023-07-29T00:46:52;6.90;;;5.42;;
26014;SDS011;13793;55.388;37.844;2023-07-29T00:49:23;6.08;;;5.05;;
26014;SDS011;13793;55.388;37.844;2023-07-29T00:52:04;6.92;;;5.42;;
26014;SDS011;13793;55.388;37.844;2023-07-29T00:54:35;6.60;;;5.92;;
26014;SDS011;13793;55.388;37.844;2023-07-29T00:57:16;6.92;;;5.97;;
26014;SDS011;13793;55.388;37.844;2023-07-29T00:59:47;7.90;;;6.25;;
26014;SDS011;13793;55.388;37.844;2023-07-29T01:02:28;8.43;;;6.47;;
26014;SDS011;13793;55.388;37.844;2023-07-29T01:05:00;7.35;;;6.20;;
26014;SDS011;13793;55.388;37.844;2023-07-29T01:10:29;8.38;;;6.65;;
26014;SDS011;13793;55.388;37.844;2023-07-29T01:16:03;6.72;;;5.85;;
26014;SDS011;13793;55.388;37.844;2023-07-29T01:18:54;7.30;;;6.30;;
26014;SDS011;13793;55.388;37.844;2023-07-29T01:21:26;7.00;;;6.08;;
26014;SDS011;13793;55.388;37.844;2023-07-29T01:24:07;7.70;;;6.12;;
26014;SDS011;13793;55.388;37.844;2023-07-29T01:26:38;8.15;;;5.55;;
26014;SDS011;13793;55.388;37.844;2023-07-29T01:29:19;6.17;;;5.55;;
26014;SDS011;13793;55.388;37.844;2023-07-29T01:31:50;6.33;;;5.42;;
26014;SDS011;13793;55.388;37.844;2023-07-29T01:34:34;6.58;;;5.00;;
26014;SDS011;13793;55.388;37.844;2023-07-29T01:37:19;7.10;;;4.90;;
26014;SDS011;13793;55.388;37.844;2023-07-29T01:39:52;8.45;;;6.00;;
26014;SDS011;13793;55.388;37.844;2023-07-29T01:42:35;6.83;;;5.95;;
26014;SDS011;13793;55.388;37.844;2023-07-29T01:45:07;8.53;;;5.60;;
26014;SDS011;13793;55.388;37.844;2023-07-29T01:47:48;6.10;;;5.53;;
26014;SDS011;13793;55.388;37.844;2023-07-29T01:50:19;5.80;;;5.20;;
26014;SDS011;13793;55.388;37.844;2023-07-29T01:53:00;6.53;;;5.00;;
26014;SDS011;13793;55.388;37.844;2023-07-29T01:55:31;6.30;;;4.95;;
26014;SDS011;13793;55.388;37.844;2023-07-29T01:58:12;5.17;;;4.67;;
26014;SDS011;13793;55.388;37.844;2023-07-29T02:00:45;5.92;;;4.08;;
26014;SDS011;13793;55.388;37.844;2023-07-29T02:03:26;6.87;;;3.83;;
26014;SDS011;13793;55.388;37.844;2023-07-29T02:05:57;6.42;;;4.28;;
26014;SDS011;13793;55.388;37.844;2023-07-29T02:08:38;4.40;;;4.00;;
26014;SDS011;13793;55.388;37.844;2023-07-29T02:11:09;4.95;;;3.80;;
26014;SDS011;13793;55.388;37.844;2023-07-29T02:13:50;5.17;;;4.28;;
26014;SDS011;13793;55.388;37.844;2023-07-29T02:16:21;5.92;;;4.53;;
26014;SDS011;13793;55.388;37.844;2023-07-29T02:19:02;5.87;;;4.35;;
26014;SDS011;13793;55.388;37.844;2023-07-29T02:21:33;5.97;;;5.17;;
26014;SDS011;13793;55.388;37.844;2023-07-29T02:24:14;5.47;;;4.97;;
26014;SDS011;13793;55.388;37.844;2023-07-29T02:26:45;9.08;;;6.10;;
26014;SDS011;13793;55.388;37.844;2023-07-29T02:29:26;5.97;;;5.37;;
26014;SDS011;13793;55.388;37.844;2023-07-29T02:31:57;7.15;;;5.85;;
26014;SDS011;13793;55.388;37.844;2023-07-29T02:34:39;7.55;;;5.78;;
26014;SDS011;13793;55.388;37.844;2023-07-29T02:37:10;6.80;;;6.05;;
26014;SDS011;13793;55.388;37.844;2023-07-29T02:39:51;9.33;;;5.97;;
26014;SDS011;13793;55.388;37.844;2023-07-29T02:42:22;6.20;;;5.60;;
26014;SDS011;13793;55.388;37.844;2023-07-29T02:45:03;6.83;;;6.12;;
26014;SDS011;13793;55.388;37.844;2023-07-29T02:47:37;8.23;;;6.33;;
26014;SDS011;13793;55.388;37.844;2023-07-29T02:50:17;8.95;;;6.00;;
26014;SDS011;13793;55.388;37.844;2023-07-29T02:52:48;8.30;;;5.95;;
26014;SDS011;13793;55.388;37.844;2023-07-29T02:55:29;6.78;;;5.42;;
26014;SDS011;13793;55.388;37.844;2023-07-29T02:58:00;5.92;;;5.33;;
26014;SDS011;13793;55.388;37.844;2023-07-29T03:00:41;6.83;;;5.17;;
26014;SDS011;13793;55.388;37.844;2023-07-29T03:03:22;7.03;;;5.58;;
26014;SDS011;13793;55.388;37.844;2023-07-29T03:06:03;7.12;;;5.30;;
26014;SDS011;13793;55.388;37.844;2023-07-29T03:08:48;7.67;;;5.72;;
26014;SDS011;13793;55.388;37.844;2023-07-29T03:11:18;6.17;;;5.12;;
26014;SDS011;13793;55.388;37.844;2023-07-29T03:13:59;6.05;;;5.45;;
26014;SDS011;13793;55.388;37.844;2023-07-29T03:16:30;6.33;;;5.70;;
26014;SDS011;13793;55.388;37.844;2023-07-29T03:19:12;6.45;;;5.75;;
26014;SDS011;13793;55.388;37.844;2023-07-29T03:21:42;5.97;;;5.15;;
26014;SDS011;13793;55.388;37.844;2023-07-29T03:24:24;6.80;;;6.10;;
26014;SDS011;13793;55.388;37.844;2023-07-29T03:26:56;6.00;;;5.40;;
26014;SDS011;13793;55.388;37.844;2023-07-29T03:29:36;9.78;;;6.55;;
26014;SDS011;13793;55.388;37.844;2023-07-29T03:32:07;6.55;;;5.80;;
26014;SDS011;13793;55.388;37.844;2023-07-29T03:34:48;7.50;;;6.42;;
26014;SDS011;13793;55.388;37.844;2023-07-29T03:37:19;7.95;;;5.97;;
26014;SDS011;13793;55.388;37.844;2023-07-29T03:40:00;6.50;;;5.90;;
26014;SDS011;13793;55.388;37.844;2023-07-29T03:42:31;6.80;;;6.20;;
26014;SDS011;13793;55.388;37.844;2023-07-29T03:45:12;8.45;;;6.22;;
26014;SDS011;13793;55.388;37.844;2023-07-29T03:47:43;8.08;;;6.47;;
26014;SDS011;13793;55.388;37.844;2023-07-29T03:50:26;6.67;;;6.08;;
26014;SDS011;13793;55.388;37.844;2023-07-29T03:52:57;7.53;;;5.60;;
26014;SDS011;13793;55.388;37.844;2023-07-29T03:55:44;6.58;;;5.28;;
26014;SDS011;13793;55.388;37.844;2023-07-29T03:58:15;5.40;;;4.90;;
26014;SDS011;13793;55.388;37.844;2023-07-29T04:00:56;6.22;;;5.10;;
26014;SDS011;13793;55.388;37.844;2023-07-29T04:03:28;5.17;;;4.67;;
26014;SDS011;13793;55.388;37.844;2023-07-29T04:06:08;5.75;;;4.92;;
26014;SDS011;13793;55.388;37.844;2023-07-29T04:08:40;6.05;;;5.00;;
26014;SDS011;13793;55.388;37.844;2023-07-29T04:11:21;5.50;;;5.00;;
26014;SDS011;13793;55.388;37.844;2023-07-29T04:13:52;5.17;;;4.67;;
26014;SDS011;13793;55.388;37.844;2023-07-29T04:16:33;6.08;;;4.47;;
26014;SDS011;13793;55.388;37.844;2023-07-29T04:19:03;7.47;;;4.50;;
26014;SDS011;13793;55.388;37.844;2023-07-29T04:21:44;5.08;;;4.55;;
26014;SDS011;13793;55.388;37.844;2023-07-29T04:24:15;4.87;;;4.10;;
26014;SDS011;13793;55.388;37.844;2023-07-29T04:26:58;5.10;;;4.60;;
26014;SDS011;13793;55.388;37.844;2023-07-29T04:29:29;5.05;;;4.25;;
26014;SDS011;13793;55.388;37.844;2023-07-29T04:32:10;5.67;;;4.00;;
26014;SDS011;13793;55.388;37.844;2023-07-29T04:34:52;6.55;;;4.45;;
26014;SDS011;13793;55.388;37.844;2023-07-29T04:37:23;5.40;;;3.87;;
26014;SDS011;13793;55.388;37.844;2023-07-29T04:40:05;6.92;;;4.35;;
26014;SDS011;13793;55.388;37.844;2023-07-29T04:42:36;4.80;;;4.30;;
26014;SDS011;13793;55.388;37.844;2023-07-29T04:45:17;7.90;;;4.42;;
26014;SDS011;13793;55.388;37.844;2023-07-29T04:47:48;5.05;;;4.55;;
26014;SDS011;13793;55.388;37.844;2023-07-29T04:50:29;4.83;;;4.25;;
26014;SDS011;13793;55.388;37.844;2023-07-29T04:53:00;4.58;;;4.17;;
26014;SDS011;13793;55.388;37.844;2023-07-29T04:55:43;6.45;;;4.78;;
26014;SDS011;13793;55.388;37.844;2023-07-29T04:58:25;7.28;;;4.83;;
26014;SDS011;13793;55.388;37.844;2023-07-29T05:00:59;6.28;;;4.67;;
26014;SDS011;13793;55.388;37.844;2023-07-29T05:03:40;5.80;;;5.12;;
26014;SDS011;13793;55.388;37.844;2023-07-29T05:06:11;7.17;;;6.08;;
26014;SDS011;13793;55.388;37.844;2023-07-29T05:08:52;8.70;;;6.37;;
26014;SDS011;13793;55.388;37.844;2023-07-29T05:11:23;7.33;;;6.62;;
26014;SDS011;13793;55.388;37.844;2023-07-29T05:14:04;7.85;;;6.62;;
26014;SDS011;13793;55.388;37.844;2023-07-29T05:16:35;8.60;;;6.15;;
26014;SDS011;13793;55.388;37.844;2023-07-29T05:19:16;6.90;;;6.10;;
26014;SDS011;13793;55.388;37.844;2023-07-29T05:21:47;9.03;;;6.50;;
26014;SDS011;13793;55.388;37.844;2023-07-29T05:24:28;8.55;;;6.47;;
26014;SDS011;13793;55.388;37.844;2023-07-29T05:26:59;7.83;;;6.92;;
26014;SDS011;13793;55.388;37.844;2023-07-29T05:29:40;8.25;;;7.35;;
26014;SDS011;13793;55.388;37.844;2023-07-29T05:32:11;8.48;;;7.47;;
26014;SDS011;13793;55.388;37.844;2023-07-29T05:34:53;8.68;;;7.72;;
26014;SDS011;13793;55.388;37.844;2023-07-29T05:37:24;9.08;;;8.10;;
26014;SDS011;13793;55.388;37.844;2023-07-29T05:40:05;8.88;;;7.97;;
26014;SDS011;13793;55.388;37.844;2023-07-29T05:42:49;8.38;;;7.42;;
26014;SDS011;13793;55.388;37.844;2023-07-29T05:45:30;8.10;;;7.30;;
26014;SDS011;13793;55.388;37.844;2023-07-29T05:48:01;8.03;;;7.22;;
26014;SDS011;13793;55.388;37.844;2023-07-29T05:50:42;7.55;;;6.62;;
26014;SDS011;13793;55.388;37.844;2023-07-29T05:53:23;7.00;;;6.17;;
26014;SDS011;13793;55.388;37.844;2023-07-29T05:55:54;6.12;;;5.53;;
26014;SDS011;13793;55.388;37.844;2023-07-29T05:58:35;9.90;;;6.45;;
26014;SDS011;13793;55.388;37.844;2023-07-29T06:01:06;8.38;;;6.12;;
26014;SDS011;13793;55.388;37.844;2023-07-29T06:03:47;6.85;;;6.10;;
26014;SDS011;13793;55.388;37.844;2023-07-29T06:06:18;8.60;;;6.50;;
26014;SDS011;13793;55.388;37.844;2023-07-29T06:08:59;7.97;;;6.62;;
26014;SDS011;13793;55.388;37.844;2023-07-29T06:11:30;8.40;;;6.67;;
26014;SDS011;13793;55.388;37.844;2023-07-29T06:14:17;6.37;;;5.75;;
26014;SDS011;13793;55.388;37.844;2023-07-29T06:16:48;6.20;;;5.58;;
26014;SDS011;13793;55.388;37.844;2023-07-29T06:19:29;6.92;;;6.22;;
26014;SDS011;13793;55.388;37.844;2023-07-29T06:22:00;9.70;;;8.10;;
26014;SDS011;13793;55.388;37.844;2023-07-29T06:24:42;9.43;;;7.90;;
26014;SDS011;13793;55.388;37.844;2023-07-29T06:27:13;8.75;;;6.90;;
26014;SDS011;13793;55.388;37.844;2023-07-29T06:29:55;6.72;;;5.92;;
26014;SDS011;13793;55.388;37.844;2023-07-29T06:32:26;5.62;;;5.15;;
26014;SDS011;13793;55.388;37.844;2023-07-29T06:35:07;7.92;;;5.17;;
26014;SDS011;13793;55.388;37.844;2023-07-29T06:37:38;7.58;;;6.75;;
26014;SDS011;13793;55.388;37.844;2023-07-29T06:40:19;8.48;;;7.08;;
26014;SDS011;13793;55.388;37.844;2023-07-29T06:42:50;8.48;;;7.35;;
26014;SDS011;13793;55.388;37.844;2023-07-29T06:45:37;9.25;;;8.15;;
26014;SDS011;13793;55.388;37.844;2023-07-29T06:48:08;9.83;;;7.47;;
26014;SDS011;13793;55.388;37.844;2023-07-29T06:50:49;9.75;;;7.75;;
26014;SDS011;13793;55.388;37.844;2023-07-29T06:53:20;8.88;;;7.35;;
26014;SDS011;13793;55.388;37.844;2023-07-29T06:56:01;9.38;;;8.48;;
26014;SDS011;13793;55.388;37.844;2023-07-29T06:58:34;11.35;;;9.55;;
26014;SDS011;13793;55.388;37.844;2023-07-29T07:01:15;9.75;;;8.75;;
26014;SDS011;13793;55.388;37.844;2023-07-29T07:03:46;13.18;;;9.70;;
26014;SDS011;13793;55.388;37.844;2023-07-29T07:06:27;11.12;;;9.00;;
26014;SDS011;13793;55.388;37.844;2023-07-29T07:08:58;10.48;;;7.95;;
26014;SDS011;13793;55.388;37.844;2023-07-29T07:11:39;8.80;;;7.05;;
26014;SDS011;13793;55.388;37.844;2023-07-29T07:14:09;9.90;;;6.50;;
26014;SDS011;13793;55.388;37.844;2023-07-29T07:16:50;8.90;;;7.05;;
26014;SDS011;13793;55.388;37.844;2023-07-29T07:19:21;8.63;;;7.08;;
26014;SDS011;13793;55.388;37.844;2023-07-29T07:22:02;8.10;;;6.67;;
26014;SDS011;13793;55.388;37.844;2023-07-29T07:24:33;10.58;;;6.33;;
26014;SDS011;13793;55.388;37.844;2023-07-29T07:27:14;9.45;;;6.05;;
26014;SDS011;13793;55.388;37.844;2023-07-29T07:29:45;7.45;;;5.75;;
26014;SDS011;13793;55.388;37.844;2023-07-29T07:32:26;6.78;;;6.17;;
26014;SDS011;13793;55.388;37.844;2023-07-29T07:34:57;7.80;;;6.53;;
26014;SDS011;13793;55.388;37.844;2023-07-29T07:37:38;9.18;;;7.05;;
26014;SDS011;13793;55.388;37.844;2023-07-29T07:40:09;6.90;;;6.20;;
26014;SDS011;13793;55.388;37.844;2023-07-29T07:42:50;7.40;;;5.83;;
26014;SDS011;13793;55.388;37.844;2023-07-29T07:45:21;8.48;;;6.47;;
26014;SDS011;13793;55.388;37.844;2023-07-29T07:48:02;9.55;;;6.95;;
26014;SDS011;13793;55.388;37.844;2023-07-29T07:50:33;7.25;;;6.37;;
26014;SDS011;13793;55.388;37.844;2023-07-29T07:53:14;7.45;;;6.10;;
26014;SDS011;13793;55.388;37.844;2023-07-29T07:55:44;7.15;;;5.90;;
26014;SDS011;13793;55.388;37.844;2023-07-29T07:58:25;6.67;;;5.35;;
26014;SDS011;13793;55.388;37.844;2023-07-29T08:01:03;6.35;;;5.72;;
26014;SDS011;13793;55.388;37.844;2023-07-29T08:03:43;9.35;;;6.28;;
26014;SDS011;13793;55.388;37.844;2023-07-29T08:06:15;8.88;;;6.25;;
26014;SDS011;13793;55.388;37.844;2023-07-29T08:08:56;8.98;;;5.95;;
26014;SDS011;13793;55.388;37.844;2023-07-29T08:11:27;9.83;;;6.08;;
26014;SDS011;13793;55.388;37.844;2023-07-29T08:14:08;7.85;;;6.47;;
26014;SDS011;13793;55.388;37.844;2023-07-29T08:16:39;8.00;;;6.60;;
26014;SDS011;13793;55.388;37.844;2023-07-29T08:19:20;8.05;;;6.35;;
26014;SDS011;13793;55.388;37.844;2023-07-29T08:21:51;9.45;;;6.30;;
26014;SDS011;13793;55.388;37.844;2023-07-29T08:24:32;10.15;;;6.62;;
26014;SDS011;13793;55.388;37.844;2023-07-29T08:27:03;8.68;;;6.90;;
26014;SDS011;13793;55.388;37.844;2023-07-29T08:29:44;10.55;;;7.17;;
26014;SDS011;13793;55.388;37.844;2023-07-29T08:32:15;13.95;;;6.95;;
26014;SDS011;13793;55.388;37.844;2023-07-29T08:34:55;11.80;;;6.53;;
26014;SDS011;13793;55.388;37.844;2023-07-29T08:37:26;9.03;;;6.75;;
26014;SDS011;13793;55.388;37.844;2023-07-29T08:40:08;10.05;;;5.90;;
26014;SDS011;13793;55.388;37.844;2023-07-29T08:42:40;10.70;;;6.12;;
26014;SDS011;13793;55.388;37.844;2023-07-29T08:45:22;7.67;;;5.45;;
26014;SDS011;13793;55.388;37.844;2023-07-29T08:47:54;8.05;;;5.28;;
26014;SDS011;13793;55.388;37.844;2023-07-29T08:50:37;7.10;;;6.08;;
26014;SDS011;13793;55.388;37.844;2023-07-29T08:53:08;9.78;;;6.12;;
26014;SDS011;13793;55.388;37.844;2023-07-29T08:55:49;7.58;;;5.87;;
26014;SDS011;13793;55.388;37.844;2023-07-29T08:58:22;8.88;;;6.53;;
26014;SDS011;13793;55.388;37.844;2023-07-29T09:01:03;10.75;;;7.33;;
26014;SDS011;13793;55.388;37.844;2023-07-29T09:03:36;8.80;;;6.90;;
26014;SDS011;13793;55.388;37.844;2023-07-29T09:06:17;7.72;;;6.85;;
26014;SDS011;13793;55.388;37.844;2023-07-29T09:08:50;8.28;;;7.10;;
26014;SDS011;13793;55.388;37.844;2023-07-29T09:11:32;10.25;;;6.87;;
26014;SDS011;13793;55.388;37.844;2023-07-29T09:14:03;8.60;;;6.75;;
26014;SDS011;13793;55.388;37.844;2023-07-29T09:16:44;11.70;;;6.80;;
26014;SDS011;13793;55.388;37.844;2023-07-29T09:19:15;9.90;;;6.28;;
26014;SDS011;13793;55.388;37.844;2023-07-29T09:21:56;8.63;;;7.35;;
26014;SDS011;13793;55.388;37.844;2023-07-29T09:24:27;8.83;;;6.60;;
26014;SDS011;13793;55.388;37.844;2023-07-29T09:27:10;10.10;;;6.47;;
26014;SDS011;13793;55.388;37.844;2023-07-29T09:29:55;7.92;;;6.55;;
26014;SDS011;13793;55.388;37.844;2023-07-29T09:32:38;7.97;;;6.40;;
26014;SDS011;13793;55.388;37.844;2023-07-29T09:35:10;8.10;;;6.33;;
26014;SDS011;13793;55.388;37.844;2023-07-29T09:37:51;7.78;;;6.70;;
26014;SDS011;13793;55.388;37.844;2023-07-29T09:40:22;7.10;;;6.40;;
26014;SDS011;13793;55.388;37.844;2023-07-29T09:43:03;7.33;;;6.50;;
26014;SDS011;13793;55.388;37.844;2023-07-29T09:45:35;7.47;;;5.95;;
26014;SDS011;13793;55.388;37.844;2023-07-29T09:48:16;6.75;;;6.15;;
26014;SDS011;13793;55.388;37.844;2023-07-29T09:50:49;8.58;;;5.70;;
26014;SDS011;13793;55.388;37.844;2023-07-29T09:53:29;6.70;;;5.87;;
26014;SDS011;13793;55.388;37.844;2023-07-29T09:56:01;6.40;;;5.80;;
26014;SDS011;13793;55.388;37.844;2023-07-29T09:58:46;7.42;;;6.50;;
26014;SDS011;13793;55.388;37.844;2023-07-29T10:01:18;6.83;;;6.22;;
26014;SDS011;13793;55.388;37.844;2023-07-29T10:03:59;8.08;;;6.92;;
26014;SDS011;13793;55.388;37.844;2023-07-29T10:06:30;8.38;;;6.72;;
26014;SDS011;13793;55.388;37.844;2023-07-29T10:09:12;6.67;;;6.08;;
26014;SDS011;13793;55.388;37.844;2023-07-29T10:11:44;7.20;;;6.22;;
26014;SDS011;13793;55.388;37.844;2023-07-29T10:14:25;7.80;;;6.45;;
26014;SDS011;13793;55.388;37.844;2023-07-29T10:16:57;6.15;;;5.58;;
26014;SDS011;13793;55.388;37.844;2023-07-29T10:19:39;7.10;;;5.50;;
26014;SDS011;13793;55.388;37.844;2023-07-29T10:22:21;6.45;;;5.65;;
26014;SDS011;13793;55.388;37.844;2023-07-29T10:24:54;6.35;;;5.72;;
26014;SDS011;13793;55.388;37.844;2023-07-29T10:27:47;7.03;;;6.20;;
26014;SDS011;13793;55.388;37.844;2023-07-29T10:30:42;10.00;;;7.50;;
26014;SDS011;13793;55.388;37.844;2023-07-29T10:33:13;8.50;;;7.03;;
26014;SDS011;13793;55.388;37.844;2023-07-29T10:35:55;8.20;;;7.25;;
26014;SDS011;13793;55.388;37.844;2023-07-29T10:38:27;9.65;;;7.15;;
26014;SDS011;13793;55.388;37.844;2023-07-29T10:41:08;6.22;;;5.53;;
26014;SDS011;13793;55.388;37.844;2023-07-29T10:43:49;7.85;;;6.15;;
26014;SDS011;13793;55.388;37.844;2023-07-29T10:46:20;5.95;;;5.28;;
26014;SDS011;13793;55.388;37.844;2023-07-29T10:49:01;6.55;;;5.17;;
26014;SDS011;13793;55.388;37.844;2023-07-29T10:51:36;4.85;;;4.30;;
26014;SDS011;13793;55.388;37.844;2023-07-29T10:54:17;6.00;;;4.83;;
26014;SDS011;13793;55.388;37.844;2023-07-29T10:56:49;5.95;;;5.03;;
26014;SDS011;13793;55.388;37.844;2023-07-29T10:59:33;5.92;;;5.33;;
26014;SDS011;13793;55.388;37.844;2023-07-29T11:02:11;6.80;;;5.90;;
26014;SDS011;13793;55.388;37.844;2023-07-29T11:04:52;7.78;;;6.03;;
26014;SDS011;13793;55.388;37.844;2023-07-29T11:07:26;6.37;;;5.60;;
26014;SDS011;13793;55.388;37.844;2023-07-29T11:10:07;6.95;;;5.97;;
26014;SDS011;13793;55.388;37.844;2023-07-29T11:12:39;7.45;;;6.00;;
26014;SDS011;13793;55.388;37.844;2023-07-29T11:15:25;8.20;;;7.40;;
26014;SDS011;13793;55.388;37.844;2023-07-29T11:17:58;7.67;;;6.50;;
26014;SDS011;13793;55.388;37.844;2023-07-29T11:20:40;7.25;;;5.05;;
26014;SDS011;13793;55.388;37.844;2023-07-29T11:23:11;5.10;;;4.58;;
26014;SDS011;13793;55.388;37.844;2023-07-29T11:25:58;6.75;;;5.30;;
26014;SDS011;13793;55.388;37.844;2023-07-29T11:28:30;6.33;;;5.12;;
26014;SDS011;13793;55.388;37.844;2023-07-29T11:31:13;5.40;;;4.08;;
26014;SDS011;13793;55.388;37.844;2023-07-29T11:33:44;5.72;;;4.12;;
26014;SDS011;13793;55.388;37.844;2023-07-29T11:36:25;6.33;;;4.17;;
26014;SDS011;13793;55.388;37.844;2023-07-29T11:38:56;4.33;;;3.62;;
26014;SDS011;13793;55.388;37.844;2023-07-29T11:41:37;5.70;;;3.60;;
26014;SDS011;13793;55.388;37.844;2023-07-29T11:44:17;6.05;;;3.55;;
26014;SDS011;13793;55.388;37.844;2023-07-29T11:46:48;3.80;;;3.02;;
26014;SDS011;13793;55.388;37.844;2023-07-29T11:49:29;4.50;;;3.40;;
26014;SDS011;13793;55.388;37.844;2023-07-29T11:52:00;4.10;;;3.20;;
26014;SDS011;13793;55.388;37.844;2023-07-29T11:54:42;6.00;;;3.83;;
26014;SDS011;13793;55.388;37.844;2023-07-29T11:57:24;4.85;;;3.65;;
26014;SDS011;13793;55.388;37.844;2023-07-29T11:59:55;4.83;;;3.70;;
26014;SDS011;13793;55.388;37.844;2023-07-29T12:02:36;4.87;;;3.72;;
26014;SDS011;13793;55.388;37.844;2023-07-29T12:05:08;6.75;;;4.15;;
26014;SDS011;13793;55.388;37.844;2023-07-29T12:07:50;6.17;;;4.50;;
26014;SDS011;13793;55.388;37.844;2023-07-29T12:10:21;7.30;;;5.17;;
26014;SDS011;13793;55.388;37.844;2023-07-29T12:13:02;7.40;;;5.50;;
26014;SDS011;13793;55.388;37.844;2023-07-29T12:15:33;6.42;;;5.17;;
26014;SDS011;13793;55.388;37.844;2023-07-29T12:18:14;5.65;;;4.85;;
26014;SDS011;13793;55.388;37.844;2023-07-29T12:20:45;6.28;;;5.40;;
26014;SDS011;13793;55.388;37.844;2023-07-29T12:23:26;6.33;;;5.62;;
26014;SDS011;13793;55.388;37.844;2023-07-29T12:25:58;8.53;;;6.08;;
26014;SDS011;13793;55.388;37.844;2023-07-29T12:28:44;8.90;;;6.60;;
26014;SDS011;13793;55.388;37.844;2023-07-29T12:31:13;7.15;;;6.28;;
26014;SDS011;13793;55.388;37.844;2023-07-29T12:33:55;7.95;;;7.15;;
26014;SDS011;13793;55.388;37.844;2023-07-29T12:36:42;9.10;;;7.70;;
26014;SDS011;13793;55.388;37.844;2023-07-29T12:39:25;11.05;;;9.95;;
26014;SDS011;13793;55.388;37.844;2023-07-29T12:42:07;7.47;;;6.78;;
26014;SDS011;13793;55.388;37.844;2023-07-29T12:44:38;8.90;;;7.28;;
26014;SDS011;13793;55.388;37.844;2023-07-29T12:47:19;8.28;;;6.97;;
26014;SDS011;13793;55.388;37.844;2023-07-29T12:49:50;6.60;;;5.90;;
26014;SDS011;13793;55.388;37.844;2023-07-29T12:52:37;6.87;;;6.17;;
26014;SDS011;13793;55.388;37.844;2023-07-29T12:55:08;7.12;;;6.30;;
26014;SDS011;13793;55.388;37.844;2023-07-29T12:57:51;9.20;;;6.25;;
26014;SDS011;13793;55.388;37.844;2023-07-29T13:00:21;6.65;;;5.47;;
26014;SDS011;13793;55.388;37.844;2023-07-29T13:03:08;6.87;;;6.10;;
26014;SDS011;13793;55.388;37.844;2023-07-29T13:05:39;6.22;;;5.53;;
26014;SDS011;13793;55.388;37.844;2023-07-29T13:08:20;8.63;;;5.33;;
26014;SDS011;13793;55.388;37.844;2023-07-29T13:10:52;8.93;;;5.53;;
26014;SDS011;13793;55.388;37.844;2023-07-29T13:13:33;7.50;;;5.42;;
26014;SDS011;13793;55.388;37.844;2023-07-29T13:16:04;7.83;;;6.20;;
26014;SDS011;13793;55.388;37.844;2023-07-29T13:18:45;7.42;;;5.87;;
26014;SDS011;13793;55.388;37.844;2023-07-29T13:21:16;7.80;;;6.33;;
26014;SDS011;13793;55.388;37.844;2023-07-29T13:23:57;7.67;;;6.25;;
26014;SDS011;13793;55.388;37.844;2023-07-29T13:26:28;8.08;;;6.87;;
26014;SDS011;13793;55.388;37.844;2023-07-29T13:29:09;8.83;;;6.78;;
26014;SDS011;13793;55.388;37.844;2023-07-29T13:31:40;9.05;;;5.97;;
26014;SDS011;13793;55.388;37.844;2023-07-29T13:34:21;6.85;;;5.97;;
26014;SDS011;13793;55.388;37.844;2023-07-29T13:36:52;10.58;;;5.87;;
26014;SDS011;13793;55.388;37.844;2023-07-29T13:39:33;8.33;;;6.37;;
26014;SDS011;13793;55.388;37.844;2023-07-29T13:42:04;8.43;;;6.40;;
26014;SDS011;13793;55.388;37.844;2023-07-29T13:44:45;7.22;;;6.40;;
26014;SDS011;13793;55.388;37.844;2023-07-29T13:47:16;8.48;;;6.12;;
26014;SDS011;13793;55.388;37.844;2023-07-29T13:49:57;12.82;;;9.83;;
26014;SDS011;13793;55.388;37.844;2023-07-29T13:52:30;18.10;;;14.05;;
26014;SDS011;13793;55.388;37.844;2023-07-29T13:55:11;18.05;;;14.50;;
26014;SDS011;13793;55.388;37.844;2023-07-29T13:57:42;20.32;;;15.58;;
26014;SDS011;13793;55.388;37.844;2023-07-29T14:00:23;17.10;;;13.28;;
26014;SDS011;13793;55.388;37.844;2023-07-29T14:02:54;12.37;;;10.80;;
26014;SDS011;13793;55.388;37.844;2023-07-29T14:05:41;12.20;;;8.60;;
26014;SDS011;13793;55.388;37.844;2023-07-29T14:08:22;14.60;;;8.20;;
26014;SDS011;13793;55.388;37.844;2023-07-29T14:10:53;11.08;;;8.55;;
26014;SDS011;13793;55.388;37.844;2023-07-29T14:13:34;9.45;;;8.15;;
26014;SDS011;13793;55.388;37.844;2023-07-29T14:16:05;9.98;;;7.42;;
26014;SDS011;13793;55.388;37.844;2023-07-29T14:18:46;11.90;;;7.50;;
26014;SDS011;13793;55.388;37.844;2023-07-29T14:21:27;8.78;;;6.75;;
26014;SDS011;13793;55.388;37.844;2023-07-29T14:23:58;11.50;;;8.00;;
26014;SDS011;13793;55.388;37.844;2023-07-29T14:26:45;10.08;;;7.85;;
26014;SDS011;13793;55.388;37.844;2023-07-29T14:29:15;9.33;;;7.83;;
26014;SDS011;13793;55.388;37.844;2023-07-29T14:31:56;11.10;;;8.20;;
26014;SDS011;13793;55.388;37.844;2023-07-29T14:34:27;11.45;;;7.30;;
26014;SDS011;13793;55.388;37.844;2023-07-29T14:37:08;10.58;;;7.60;;
26014;SDS011;13793;55.388;37.844;2023-07-29T14:39:39;10.98;;;7.08;;
26014;SDS011;13793;55.388;37.844;2023-07-29T14:42:20;9.78;;;7.28;;
26014;SDS011;13793;55.388;37.844;2023-07-29T14:44:51;10.75;;;7.33;;
26014;SDS011;13793;55.388;37.844;2023-07-29T14:47:38;14.17;;;8.60;;
26014;SDS011;13793;55.388;37.844;2023-07-29T14:50:09;10.75;;;7.28;;
26014;SDS011;13793;55.388;37.844;2023-07-29T14:52:50;9.40;;;6.95;;
26014;SDS011;13793;55.388;37.844;2023-07-29T14:55:21;9.78;;;7.28;;
26014;SDS011;13793;55.388;37.844;2023-07-29T14:58:02;10.98;;;7.60;;
26014;SDS011;13793;55.388;37.844;2023-07-29T15:00:32;10.45;;;7.12;;
26014;SDS011;13793;55.388;37.844;2023-07-29T15:03:13;12.50;;;9.58;;
26014;SDS011;13793;55.388;37.844;2023-07-29T15:05:43;9.73;;;6.75;;
26014;SDS011;13793;55.388;37.844;2023-07-29T15:08:24;11.03;;;6.85;;
26014;SDS011;13793;55.388;37.844;2023-07-29T15:10:55;10.25;;;5.87;;
26014;SDS011;13793;55.388;37.844;2023-07-29T15:13:36;8.38;;;6.37;;
26014;SDS011;13793;55.388;37.844;2023-07-29T15:16:07;9.68;;;7.15;;
26014;SDS011;13793;55.388;37.844;2023-07-29T15:18:48;9.48;;;7.25;;
26014;SDS011;13793;55.388;37.844;2023-07-29T15:21:19;9.10;;;6.40;;
26014;SDS011;13793;55.388;37.844;2023-07-29T15:24:05;8.63;;;6.80;;
26014;SDS011;13793;55.388;37.844;2023-07-29T15:26:36;7.08;;;5.60;;
26014;SDS011;13793;55.388;37.844;2023-07-29T15:29:17;9.00;;;5.40;;
26014;SDS011;13793;55.388;37.844;2023-07-29T15:31:48;8.35;;;5.50;;
26014;SDS011;13793;55.388;37.844;2023-07-29T15:34:29;6.37;;;5.30;;
26014;SDS011;13793;55.388;37.844;2023-07-29T15:37:01;10.75;;;5.70;;